Genco Spirit — A8WP5 — position and weather

sailwx.info

Track history (hours):
 
Tides and Currents Weather Stations Pressure Air Temp Water Temp Dewpoint Dewpoint Depression Visibility Wind Speed Wind Dir Waves Ship Positions

Genco Spirit

Last reported at 2018-Feb-03 10:51 UTC. Time now 2018-Feb-25 15:39 UTC.
Position N 25°28' W 079°35'.
Warning: this ship's position is 22 days out of date.

Length 180 m; draft 6.3 m.

Type: Cargo ship. MMSI: 636014799.

Date/timePositionNaut miles runAvg speedWind from/ knotsBaromVisibWave heightAir tempDewpointWater temp
2018-Feb-03 10:51N 25°28' W 079°35'410.9
2018-Feb-03 10:29N 25°32' W 079°35'510.8
2018-Feb-03 09:59N 25°37' W 079°34'511.0
2018-Feb-03 09:30N 25°43' W 079°33'610.9
2018-Feb-03 09:00N 25°48' W 079°32'511.0
2018-Feb-03 08:30N 25°53' W 079°31'611.2
2018-Feb-03 08:00N 25°59' W 079°30'1711.4
2018-Feb-03 06:30N 26°16' W 079°27'  
2018-Jan-30 18:08N 38°47' W 075°03'211.6
2018-Jan-30 18:00N 38°49' W 075°03'510.4
2018-Jan-30 17:31N 38°54' W 075°05'816.4
2018-Jan-30 17:00N 39°01' W 075°09'816.2
2018-Jan-30 16:30N 39°09' W 075°14'815.5
2018-Jan-30 16:01N 39°15' W 075°19'714.6
2018-Jan-30 15:30N 39°20' W 075°26'713.4
2018-Jan-30 15:00N 39°26' W 075°32'511.0
2018-Jan-30 14:30N 39°31' W 075°33'9 8.8
2018-Jan-30 13:30N 39°40' W 075°32'5 9.4
2018-Jan-30 13:01N 39°44' W 075°30'5 9.3
2018-Jan-30 12:30N 39°48' W 075°26'4 8.1
2018-Jan-30 12:00N 39°50' W 075°22'5 9.7
2018-Jan-30 11:30N 39°51' W 075°16'7 7.5
2018-Jan-30 10:31N 39°56' W 075°08'9 8.6
2018-Jan-30 09:30N 40°02' W 075°00'510.8
2018-Jan-30 09:00N 40°04' W 074°54'4 9.0
2018-Jan-30 08:30N 40°07' W 074°50'3 6.5
2018-Jan-30 08:00N 40°08' W 074°45'0 0.7
2018-Jan-30 07:30N 40°08' W 074°45'0 0.0
2018-Jan-30 06:59N 40°08' W 074°45'0 0.0
2018-Jan-30 06:29N 40°08' W 074°45'0 0.0
2018-Jan-30 05:56N 40°08' W 074°45'0 0.0
2018-Jan-30 05:29N 40°08' W 074°45'0 0.0
2018-Jan-30 04:59N 40°08' W 074°45'0 0.0
2018-Jan-30 04:30N 40°08' W 074°45'0 0.0
2018-Jan-30 03:59N 40°08' W 074°45'0 0.0
2018-Jan-30 03:29N 40°08' W 074°45'0 0.0
2018-Jan-30 02:59N 40°08' W 074°45'0 0.0
2018-Jan-30 02:30N 40°08' W 074°45'0 0.0
2018-Jan-30 01:59N 40°08' W 074°45'0 0.0
2018-Jan-30 01:29N 40°08' W 074°45'0 0.0
2018-Jan-30 00:59N 40°08' W 074°45'0 0.0
2018-Jan-30 00:26N 40°08' W 074°45'0 0.0
2018-Jan-29 23:59N 40°08' W 074°45'0 0.0
2018-Jan-29 23:29N 40°08' W 074°45'0 0.0
2018-Jan-29 22:59N 40°08' W 074°45'0 0.0
2018-Jan-29 22:29N 40°08' W 074°45'0 0.0
2018-Jan-29 21:59N 40°08' W 074°45'0 0.0
2018-Jan-29 21:29N 40°08' W 074°45'0 0.0
2018-Jan-29 20:56N 40°08' W 074°45'0 0.0
2018-Jan-29 20:29N 40°08' W 074°45'0 0.0
2018-Jan-29 19:59N 40°08' W 074°45'0 0.0
2018-Jan-29 19:29N 40°08' W 074°45'0 0.0
2018-Jan-29 18:59N 40°08' W 074°45'0 0.0
2018-Jan-29 18:29N 40°08' W 074°45'0 0.0
2018-Jan-29 17:59N 40°08' W 074°45'0 0.0
2018-Jan-29 17:29N 40°08' W 074°45'0 0.0
2018-Jan-29 16:59N 40°08' W 074°45'0 0.0
2018-Jan-29 16:29N 40°08' W 074°45'0 0.0
2018-Jan-29 15:59N 40°08' W 074°45'0 0.0
2018-Jan-29 15:29N 40°08' W 074°45'0 0.0
2018-Jan-29 14:59N 40°08' W 074°45'0 0.0
2018-Jan-29 14:29N 40°08' W 074°45'0 0.0
2018-Jan-29 13:59N 40°08' W 074°45'0 0.0
2018-Jan-29 13:29N 40°08' W 074°45'0 0.0
2018-Jan-29 12:56N 40°08' W 074°45'0 0.0
2018-Jan-29 12:29N 40°08' W 074°45'0 0.0
2018-Jan-29 11:59N 40°08' W 074°45'0 0.0
2018-Jan-29 11:26N 40°08' W 074°45'0 0.0
2018-Jan-29 10:56N 40°08' W 074°45'0 0.0
2018-Jan-29 10:26N 40°08' W 074°45'0 0.0
2018-Jan-29 09:59N 40°08' W 074°45'0 0.0
2018-Jan-29 09:26N 40°08' W 074°45'0 0.0
2018-Jan-29 08:59N 40°08' W 074°45'0 0.0
2018-Jan-29 08:26N 40°08' W 074°45'0 0.0
2018-Jan-29 07:59N 40°08' W 074°45'0 0.0
2018-Jan-29 07:29N 40°08' W 074°45'0 0.0
2018-Jan-29 06:56N 40°08' W 074°45'0 0.0
2018-Jan-29 06:29N 40°08' W 074°45'0 0.0
2018-Jan-29 05:59N 40°08' W 074°45'0 0.0
2018-Jan-29 05:29N 40°08' W 074°45'0 0.0
2018-Jan-29 04:59N 40°08' W 074°45'0 0.0
2018-Jan-29 04:29N 40°08' W 074°45'0 0.0
2018-Jan-29 03:59N 40°08' W 074°45'0 0.0
2018-Jan-29 03:29N 40°08' W 074°45'0 0.0
2018-Jan-29 02:59N 40°08' W 074°45'0 0.0
2018-Jan-29 02:26N 40°08' W 074°45'0 0.0
2018-Jan-29 01:59N 40°08' W 074°45'0 0.0
2018-Jan-29 01:29N 40°08' W 074°45'0 0.0
2018-Jan-29 00:59N 40°08' W 074°45'0 0.0
2018-Jan-29 00:26N 40°08' W 074°45'0 0.0
2018-Jan-28 23:59N 40°08' W 074°45'0 0.0
2018-Jan-28 23:29N 40°08' W 074°45'0 0.0
2018-Jan-28 22:56N 40°08' W 074°45'0 0.0
2018-Jan-28 22:26N 40°08' W 074°45'0 0.0
2018-Jan-28 21:59N 40°08' W 074°45'0 0.0
2018-Jan-28 21:29N 40°08' W 074°45'0 0.0
2018-Jan-28 20:59N 40°08' W 074°45'0 0.0
2018-Jan-28 20:29N 40°08' W 074°45'0 0.0
2018-Jan-28 19:59N 40°08' W 074°45'0 0.0
2018-Jan-28 19:29N 40°08' W 074°45'0 0.0
2018-Jan-28 18:59N 40°08' W 074°45'0 0.0
2018-Jan-28 18:26N 40°08' W 074°45'0 0.0
2018-Jan-28 17:59N 40°08' W 074°45'0 0.0
2018-Jan-28 17:29N 40°08' W 074°45'0 0.0
2018-Jan-28 16:59N 40°08' W 074°45'0 0.0
2018-Jan-28 16:29N 40°08' W 074°45'0 0.0
2018-Jan-28 15:59N 40°08' W 074°45'0 0.0
2018-Jan-28 15:29N 40°08' W 074°45'0 0.0
2018-Jan-28 14:59N 40°08' W 074°45'0 0.0
2018-Jan-28 14:29N 40°08' W 074°45'0 0.0
2018-Jan-28 13:59N 40°08' W 074°45'0 0.0
2018-Jan-28 13:29N 40°08' W 074°45'0 0.0
2018-Jan-28 12:59N 40°08' W 074°45'0 0.0
2018-Jan-28 12:29N 40°08' W 074°45'0 0.0
2018-Jan-28 11:59N 40°08' W 074°45'0 0.0
2018-Jan-28 11:26N 40°08' W 074°45'0 0.0
2018-Jan-28 10:59N 40°08' W 074°45'0 0.0
2018-Jan-28 10:29N 40°08' W 074°45'0 0.0
2018-Jan-28 09:59N 40°08' W 074°45'0 0.0
2018-Jan-28 09:29N 40°08' W 074°45'0 0.0
2018-Jan-28 08:59N 40°08' W 074°45'0 0.0
2018-Jan-28 08:29N 40°08' W 074°45'0 0.0
2018-Jan-28 07:59N 40°08' W 074°45'0 0.0
2018-Jan-28 07:29N 40°08' W 074°45'0 0.0
2018-Jan-28 06:59N 40°08' W 074°45'0 0.0
2018-Jan-28 06:29N 40°08' W 074°45'0 0.0
2018-Jan-28 05:59N 40°08' W 074°45'0 0.0
2018-Jan-28 05:29N 40°08' W 074°45'0 0.0
2018-Jan-28 04:59N 40°08' W 074°45'0 0.0
2018-Jan-28 04:26N 40°08' W 074°45'0 0.0
2018-Jan-28 03:59N 40°08' W 074°45'0 0.0
2018-Jan-28 03:26N 40°08' W 074°45'0 0.0
2018-Jan-28 02:56N 40°08' W 074°45'0 0.0
2018-Jan-28 02:29N 40°08' W 074°45'0 0.0
2018-Jan-28 01:59N 40°08' W 074°45'0 0.0
2018-Jan-28 01:26N 40°08' W 074°45'0 0.0
2018-Jan-28 00:56N 40°08' W 074°45'0 0.0
2018-Jan-28 00:26N 40°08' W 074°45'0 0.0
2018-Jan-27 23:59N 40°08' W 074°45'0 0.0
2018-Jan-27 23:29N 40°08' W 074°45'0 0.0
2018-Jan-27 22:59N 40°08' W 074°45'0 0.0
2018-Jan-27 22:29N 40°08' W 074°45'0 0.0
2018-Jan-27 21:59N 40°08' W 074°45'0 0.0
2018-Jan-27 21:29N 40°08' W 074°45'0 0.0
2018-Jan-27 20:56N 40°08' W 074°45'0 0.0
2018-Jan-27 20:29N 40°08' W 074°45'0 0.0
2018-Jan-27 19:59N 40°08' W 074°45'0 0.0
2018-Jan-27 19:29N 40°08' W 074°45'0 0.0
2018-Jan-27 18:59N 40°08' W 074°45'0 0.0
2018-Jan-27 18:29N 40°08' W 074°45'0 0.0
2018-Jan-27 17:59N 40°08' W 074°45'0 0.0
2018-Jan-27 17:29N 40°08' W 074°45'0 0.0
2018-Jan-27 16:59N 40°08' W 074°45'0 0.0
2018-Jan-27 16:29N 40°08' W 074°45'0 0.0
2018-Jan-27 15:59N 40°08' W 074°45'0 0.0
2018-Jan-27 15:29N 40°08' W 074°45'0 0.0
2018-Jan-27 14:59N 40°08' W 074°45'0 0.0
2018-Jan-27 14:26N 40°08' W 074°45'0 0.0
2018-Jan-27 13:59N 40°08' W 074°45'0 0.0
2018-Jan-27 13:29N 40°08' W 074°45'0 0.0
2018-Jan-27 12:59N 40°08' W 074°45'0 0.0
2018-Jan-27 12:29N 40°08' W 074°45'0 0.0
2018-Jan-27 11:50N 40°08' W 074°45'0 0.0
2018-Jan-27 11:26N 40°08' W 074°45'0 0.0
2018-Jan-27 10:59N 40°08' W 074°45'0 0.0
2018-Jan-27 10:11N 40°08' W 074°45'0 0.0
2018-Jan-27 09:56N 40°08' W 074°45'0 0.0
2018-Jan-27 09:26N 40°08' W 074°45'0 0.0
2018-Jan-27 08:56N 40°08' W 074°45'0 0.0
2018-Jan-27 08:26N 40°08' W 074°45'0 0.0
2018-Jan-27 07:56N 40°08' W 074°45'0 0.0
2018-Jan-27 06:14N 40°08' W 074°45'0 0.0
2018-Jan-27 05:50N 40°08' W 074°45'0 0.0
2018-Jan-27 05:29N 40°08' W 074°45'0 0.0
2018-Jan-27 04:59N 40°08' W 074°45'0 0.0
2018-Jan-27 04:29N 40°08' W 074°45'0 0.0
2018-Jan-27 03:59N 40°08' W 074°45'0 0.0
2018-Jan-27 03:20N 40°08' W 074°45'0 0.0
2018-Jan-27 02:50N 40°08' W 074°45'0 0.0
2018-Jan-27 02:29N 40°08' W 074°45'0 0.0
2018-Jan-27 00:14N 40°08' W 074°45'0 0.0
2018-Jan-26 23:59N 40°08' W 074°45'0 0.0
2018-Jan-26 23:20N 40°08' W 074°45'0 0.0
2018-Jan-26 21:50N 40°08' W 074°45'0 0.0
2018-Jan-26 21:20N 40°08' W 074°45'0 0.0
2018-Jan-26 20:59N 40°08' W 074°45'0 0.0
2018-Jan-26 20:29N 40°08' W 074°45'0 0.0
2018-Jan-26 19:59N 40°08' W 074°45'0 0.0
2018-Jan-26 19:26N 40°08' W 074°45'0 0.0
2018-Jan-26 18:59N 40°08' W 074°45'0 0.0
2018-Jan-26 18:29N 40°08' W 074°45'0 0.0
2018-Jan-26 17:59N 40°08' W 074°45'0 0.0
2018-Jan-26 17:20N 40°08' W 074°45'0 0.0
2018-Jan-26 16:38N 40°08' W 074°45'0 0.0
2018-Jan-26 14:56N 40°08' W 074°45'0 0.0
2018-Jan-26 14:29N 40°08' W 074°45'0 0.0
2018-Jan-26 13:59N 40°08' W 074°45'0 0.0
2018-Jan-26 13:26N 40°08' W 074°45'0 0.0
2018-Jan-26 12:44N 40°08' W 074°45'0 0.0
2018-Jan-26 12:29N 40°08' W 074°45'0 0.0
2018-Jan-26 11:56N 40°08' W 074°45'0 0.0
2018-Jan-26 11:29N 40°08' W 074°45'0 0.0
2018-Jan-26 10:56N 40°08' W 074°45'0 0.0
2018-Jan-26 10:23N 40°08' W 074°45'0 0.0
2018-Jan-26 09:56N 40°08' W 074°45'0 0.0
2018-Jan-26 09:26N 40°08' W 074°45'0 0.0
2018-Jan-26 08:59N 40°08' W 074°45'0 0.0
2018-Jan-26 08:26N 40°08' W 074°45'0 0.0
2018-Jan-26 07:59N 40°08' W 074°45'0 0.0
2018-Jan-26 07:29N 40°08' W 074°45'0 0.0
2018-Jan-26 06:59N 40°08' W 074°45'0 0.0
2018-Jan-26 06:29N 40°08' W 074°45'0 0.0
2018-Jan-26 05:59N 40°08' W 074°45'0 0.0
2018-Jan-26 05:29N 40°08' W 074°45'0 0.0
2018-Jan-26 04:56N 40°08' W 074°45'0 0.0
2018-Jan-26 04:26N 40°08' W 074°45'0 0.0
2018-Jan-26 03:59N 40°08' W 074°45'0 0.0
2018-Jan-26 03:29N 40°08' W 074°45'0 0.0
2018-Jan-26 02:59N 40°08' W 074°45'0 0.0
2018-Jan-26 02:29N 40°08' W 074°45'0 0.0
2018-Jan-26 01:59N 40°08' W 074°45'0 0.0
2018-Jan-26 01:29N 40°08' W 074°45'0 0.0
2018-Jan-26 00:59N 40°08' W 074°45'0 0.0
2018-Jan-26 00:26N 40°08' W 074°45'0 0.0
2018-Jan-25 23:59N 40°08' W 074°45'0 0.0
2018-Jan-25 23:26N 40°08' W 074°45'0 0.0
2018-Jan-25 22:59N 40°08' W 074°45'0 0.0
2018-Jan-25 22:29N 40°08' W 074°45'0 0.0
2018-Jan-25 21:59N 40°08' W 074°45'0 0.0
2018-Jan-25 21:29N 40°08' W 074°45'0 0.0
2018-Jan-25 20:59N 40°08' W 074°45'0 0.0
2018-Jan-25 20:29N 40°08' W 074°45'0 0.0
2018-Jan-25 19:59N 40°08' W 074°45'0 0.0
2018-Jan-25 19:26N 40°08' W 074°45'0 0.0
2018-Jan-25 18:59N 40°08' W 074°45'0 0.0
2018-Jan-25 18:29N 40°08' W 074°45'0 0.0
2018-Jan-25 17:59N 40°08' W 074°45'0 0.0
2018-Jan-25 17:29N 40°08' W 074°45'0 0.0
2018-Jan-25 16:59N 40°08' W 074°45'0 0.0
2018-Jan-25 16:29N 40°08' W 074°45'0 0.0
2018-Jan-25 15:59N 40°08' W 074°45'0 0.0
2018-Jan-25 15:29N 40°08' W 074°45'0 0.0
2018-Jan-25 14:59N 40°08' W 074°45'0 0.0
2018-Jan-25 14:29N 40°08' W 074°45'0 0.0
2018-Jan-25 13:59N 40°08' W 074°45'0 0.0
2018-Jan-25 13:29N 40°08' W 074°45'0 0.0
2018-Jan-25 12:59N 40°08' W 074°45'0 0.0
2018-Jan-25 12:20N 40°08' W 074°45'0 0.0
2018-Jan-25 11:56N 40°08' W 074°45'0 0.0
2018-Jan-25 11:23N 40°08' W 074°45'0 0.0
2018-Jan-25 10:59N 40°08' W 074°45'0 0.0
2018-Jan-25 10:26N 40°08' W 074°45'0 0.0
2018-Jan-25 09:59N 40°08' W 074°45'0 0.0
2018-Jan-25 09:29N 40°08' W 074°45'0 0.0
2018-Jan-25 08:59N 40°08' W 074°45'0 0.0
2018-Jan-25 08:29N 40°08' W 074°45'0 0.0
2018-Jan-25 07:59N 40°08' W 074°45'0 0.0
2018-Jan-25 07:29N 40°08' W 074°45'0 0.0
2018-Jan-25 06:59N 40°08' W 074°45'0 0.0
2018-Jan-25 06:26N 40°08' W 074°45'0 0.0
2018-Jan-25 05:59N 40°08' W 074°45'0 0.0
2018-Jan-25 05:29N 40°08' W 074°45'0 0.0
2018-Jan-25 04:59N 40°08' W 074°45'0 0.0
2018-Jan-25 04:29N 40°08' W 074°45'0 0.0
2018-Jan-25 03:59N 40°08' W 074°45'0 0.0
2018-Jan-25 03:29N 40°08' W 074°45'0 0.0
2018-Jan-25 02:56N 40°08' W 074°45'0 0.0
2018-Jan-25 02:29N 40°08' W 074°45'0 0.0
2018-Jan-25 01:59N 40°08' W 074°45'0 0.0
2018-Jan-25 01:29N 40°08' W 074°45'0 0.0
2018-Jan-25 00:59N 40°08' W 074°45'0 0.0
2018-Jan-25 00:29N 40°08' W 074°45'0 0.0
2018-Jan-24 23:59N 40°08' W 074°45'0 0.0
2018-Jan-24 23:29N 40°08' W 074°45'0 0.0
2018-Jan-24 22:59N 40°08' W 074°45'0 0.0
2018-Jan-24 22:29N 40°08' W 074°45'0 0.0
2018-Jan-24 21:59N 40°08' W 074°45'0 0.0
2018-Jan-24 21:29N 40°08' W 074°45'0 0.0
2018-Jan-24 20:56N 40°08' W 074°45'0 0.0
2018-Jan-24 20:29N 40°08' W 074°45'0 0.0
2018-Jan-24 19:59N 40°08' W 074°45'0 0.0
2018-Jan-24 19:26N 40°08' W 074°45'0 0.0
2018-Jan-24 18:59N 40°08' W 074°45'0 0.0
2018-Jan-24 18:29N 40°08' W 074°45'0 0.0
2018-Jan-24 17:56N 40°08' W 074°45'0 0.0
2018-Jan-24 17:29N 40°08' W 074°45'0 0.0
2018-Jan-24 16:59N 40°08' W 074°45'0 0.0
2018-Jan-24 16:29N 40°08' W 074°45'0 0.0
2018-Jan-24 15:59N 40°08' W 074°45'0 0.0
2018-Jan-24 15:29N 40°08' W 074°45'0 0.0
2018-Jan-24 14:59N 40°08' W 074°45'0 0.0
2018-Jan-24 14:29N 40°08' W 074°45'0 0.0
2018-Jan-24 13:59N 40°08' W 074°45'0 0.0
2018-Jan-24 13:17N 40°08' W 074°45'0 0.0
2018-Jan-24 12:59N 40°08' W 074°45'0 0.0
2018-Jan-24 12:29N 40°08' W 074°45'0 0.0
2018-Jan-24 11:59N 40°08' W 074°45'0 0.0
2018-Jan-24 11:29N 40°08' W 074°45'0 0.0
2018-Jan-24 10:59N 40°08' W 074°45'  
Track history (hours):
 
Tides and Currents Weather Stations Pressure Air Temp Water Temp Dewpoint Dewpoint Depression Visibility Wind Speed Wind Dir Waves Ship Positions

Genco Spirit

Last reported at 2018-Feb-03 10:51 UTC. Time now 2018-Feb-25 15:39 UTC.
Position N 25°28' W 079°35'.
Warning: this ship's position is 22 days out of date.

Length 180 m; draft 6.3 m.

Type: Cargo ship. MMSI: 636014799.

Date/timePositionNaut miles runAvg speedWind from/ knotsBaromVisibWave heightAir tempDewpointWater temp
2018-Feb-03 10:51N 25°28' W 079°35'410.9
2018-Feb-03 10:29N 25°32' W 079°35'510.8
2018-Feb-03 09:59N 25°37' W 079°34'511.0
2018-Feb-03 09:30N 25°43' W 079°33'610.9
2018-Feb-03 09:00N 25°48' W 079°32'511.0
2018-Feb-03 08:30N 25°53' W 079°31'611.2
2018-Feb-03 08:00N 25°59' W 079°30'1711.4
2018-Feb-03 06:30N 26°16' W 079°27'  
2018-Jan-30 18:08N 38°47' W 075°03'211.6
2018-Jan-30 18:00N 38°49' W 075°03'510.4
2018-Jan-30 17:31N 38°54' W 075°05'816.4
2018-Jan-30 17:00N 39°01' W 075°09'816.2
2018-Jan-30 16:30N 39°09' W 075°14'815.5
2018-Jan-30 16:01N 39°15' W 075°19'714.6
2018-Jan-30 15:30N 39°20' W 075°26'713.4
2018-Jan-30 15:00N 39°26' W 075°32'511.0
2018-Jan-30 14:30N 39°31' W 075°33'9 8.8
2018-Jan-30 13:30N 39°40' W 075°32'5 9.4
2018-Jan-30 13:01N 39°44' W 075°30'5 9.3
2018-Jan-30 12:30N 39°48' W 075°26'4 8.1
2018-Jan-30 12:00N 39°50' W 075°22'5 9.7
2018-Jan-30 11:30N 39°51' W 075°16'7 7.5
2018-Jan-30 10:31N 39°56' W 075°08'9 8.6
2018-Jan-30 09:30N 40°02' W 075°00'510.8
2018-Jan-30 09:00N 40°04' W 074°54'4 9.0
2018-Jan-30 08:30N 40°07' W 074°50'3 6.5
2018-Jan-30 08:00N 40°08' W 074°45'0 0.7
2018-Jan-30 07:30N 40°08' W 074°45'0 0.0
2018-Jan-30 06:59N 40°08' W 074°45'0 0.0
2018-Jan-30 06:29N 40°08' W 074°45'0 0.0
2018-Jan-30 05:56N 40°08' W 074°45'0 0.0
2018-Jan-30 05:29N 40°08' W 074°45'0 0.0
2018-Jan-30 04:59N 40°08' W 074°45'0 0.0
2018-Jan-30 04:30N 40°08' W 074°45'0 0.0
2018-Jan-30 03:59N 40°08' W 074°45'0 0.0
2018-Jan-30 03:29N 40°08' W 074°45'0 0.0
2018-Jan-30 02:59N 40°08' W 074°45'0 0.0
2018-Jan-30 02:30N 40°08' W 074°45'0 0.0
2018-Jan-30 01:59N 40°08' W 074°45'0 0.0
2018-Jan-30 01:29N 40°08' W 074°45'0 0.0
2018-Jan-30 00:59N 40°08' W 074°45'0 0.0
2018-Jan-30 00:26N 40°08' W 074°45'0 0.0
2018-Jan-29 23:59N 40°08' W 074°45'0 0.0
2018-Jan-29 23:29N 40°08' W 074°45'0 0.0
2018-Jan-29 22:59N 40°08' W 074°45'0 0.0
2018-Jan-29 22:29N 40°08' W 074°45'0 0.0
2018-Jan-29 21:59N 40°08' W 074°45'0 0.0
2018-Jan-29 21:29N 40°08' W 074°45'0 0.0
2018-Jan-29 20:56N 40°08' W 074°45'0 0.0
2018-Jan-29 20:29N 40°08' W 074°45'0 0.0
2018-Jan-29 19:59N 40°08' W 074°45'0 0.0
2018-Jan-29 19:29N 40°08' W 074°45'0 0.0
2018-Jan-29 18:59N 40°08' W 074°45'0 0.0
2018-Jan-29 18:29N 40°08' W 074°45'0 0.0
2018-Jan-29 17:59N 40°08' W 074°45'0 0.0
2018-Jan-29 17:29N 40°08' W 074°45'0 0.0
2018-Jan-29 16:59N 40°08' W 074°45'0 0.0
2018-Jan-29 16:29N 40°08' W 074°45'0 0.0
2018-Jan-29 15:59N 40°08' W 074°45'0 0.0
2018-Jan-29 15:29N 40°08' W 074°45'0 0.0
2018-Jan-29 14:59N 40°08' W 074°45'0 0.0
2018-Jan-29 14:29N 40°08' W 074°45'0 0.0
2018-Jan-29 13:59N 40°08' W 074°45'0 0.0
2018-Jan-29 13:29N 40°08' W 074°45'0 0.0
2018-Jan-29 12:56N 40°08' W 074°45'0 0.0
2018-Jan-29 12:29N 40°08' W 074°45'0 0.0
2018-Jan-29 11:59N 40°08' W 074°45'0 0.0
2018-Jan-29 11:26N 40°08' W 074°45'0 0.0
2018-Jan-29 10:56N 40°08' W 074°45'0 0.0
2018-Jan-29 10:26N 40°08' W 074°45'0 0.0
2018-Jan-29 09:59N 40°08' W 074°45'0 0.0
2018-Jan-29 09:26N 40°08' W 074°45'0 0.0
2018-Jan-29 08:59N 40°08' W 074°45'0 0.0
2018-Jan-29 08:26N 40°08' W 074°45'0 0.0
2018-Jan-29 07:59N 40°08' W 074°45'0 0.0
2018-Jan-29 07:29N 40°08' W 074°45'0 0.0
2018-Jan-29 06:56N 40°08' W 074°45'0 0.0
2018-Jan-29 06:29N 40°08' W 074°45'0 0.0
2018-Jan-29 05:59N 40°08' W 074°45'0 0.0
2018-Jan-29 05:29N 40°08' W 074°45'0 0.0
2018-Jan-29 04:59N 40°08' W 074°45'0 0.0
2018-Jan-29 04:29N 40°08' W 074°45'0 0.0
2018-Jan-29 03:59N 40°08' W 074°45'0 0.0
2018-Jan-29 03:29N 40°08' W 074°45'0 0.0
2018-Jan-29 02:59N 40°08' W 074°45'0 0.0
2018-Jan-29 02:26N 40°08' W 074°45'0 0.0
2018-Jan-29 01:59N 40°08' W 074°45'0 0.0
2018-Jan-29 01:29N 40°08' W 074°45'0 0.0
2018-Jan-29 00:59N 40°08' W 074°45'0 0.0
2018-Jan-29 00:26N 40°08' W 074°45'0 0.0
2018-Jan-28 23:59N 40°08' W 074°45'0 0.0
2018-Jan-28 23:29N 40°08' W 074°45'0 0.0
2018-Jan-28 22:56N 40°08' W 074°45'0 0.0
2018-Jan-28 22:26N 40°08' W 074°45'0 0.0
2018-Jan-28 21:59N 40°08' W 074°45'0 0.0
2018-Jan-28 21:29N 40°08' W 074°45'0 0.0
2018-Jan-28 20:59N 40°08' W 074°45'0 0.0
2018-Jan-28 20:29N 40°08' W 074°45'0 0.0
2018-Jan-28 19:59N 40°08' W 074°45'0 0.0
2018-Jan-28 19:29N 40°08' W 074°45'0 0.0
2018-Jan-28 18:59N 40°08' W 074°45'0 0.0
2018-Jan-28 18:26N 40°08' W 074°45'0 0.0
2018-Jan-28 17:59N 40°08' W 074°45'0 0.0
2018-Jan-28 17:29N 40°08' W 074°45'0 0.0
2018-Jan-28 16:59N 40°08' W 074°45'0 0.0
2018-Jan-28 16:29N 40°08' W 074°45'0 0.0
2018-Jan-28 15:59N 40°08' W 074°45'0 0.0
2018-Jan-28 15:29N 40°08' W 074°45'0 0.0
2018-Jan-28 14:59N 40°08' W 074°45'0 0.0
2018-Jan-28 14:29N 40°08' W 074°45'0 0.0
2018-Jan-28 13:59N 40°08' W 074°45'0 0.0
2018-Jan-28 13:29N 40°08' W 074°45'0 0.0
2018-Jan-28 12:59N 40°08' W 074°45'0 0.0
2018-Jan-28 12:29N 40°08' W 074°45'0 0.0
2018-Jan-28 11:59N 40°08' W 074°45'0 0.0
2018-Jan-28 11:26N 40°08' W 074°45'0 0.0
2018-Jan-28 10:59N 40°08' W 074°45'0 0.0
2018-Jan-28 10:29N 40°08' W 074°45'0 0.0
2018-Jan-28 09:59N 40°08' W 074°45'0 0.0
2018-Jan-28 09:29N 40°08' W 074°45'0 0.0
2018-Jan-28 08:59N 40°08' W 074°45'0 0.0
2018-Jan-28 08:29N 40°08' W 074°45'0 0.0
2018-Jan-28 07:59N 40°08' W 074°45'0 0.0
2018-Jan-28 07:29N 40°08' W 074°45'0 0.0
2018-Jan-28 06:59N 40°08' W 074°45'0 0.0
2018-Jan-28 06:29N 40°08' W 074°45'0 0.0
2018-Jan-28 05:59N 40°08' W 074°45'0 0.0
2018-Jan-28 05:29N 40°08' W 074°45'0 0.0
2018-Jan-28 04:59N 40°08' W 074°45'0 0.0
2018-Jan-28 04:26N 40°08' W 074°45'0 0.0
2018-Jan-28 03:59N 40°08' W 074°45'0 0.0
2018-Jan-28 03:26N 40°08' W 074°45'0 0.0
2018-Jan-28 02:56N 40°08' W 074°45'0 0.0
2018-Jan-28 02:29N 40°08' W 074°45'0 0.0
2018-Jan-28 01:59N 40°08' W 074°45'0 0.0
2018-Jan-28 01:26N 40°08' W 074°45'0 0.0
2018-Jan-28 00:56N 40°08' W 074°45'0 0.0
2018-Jan-28 00:26N 40°08' W 074°45'0 0.0
2018-Jan-27 23:59N 40°08' W 074°45'0 0.0
2018-Jan-27 23:29N 40°08' W 074°45'0 0.0
2018-Jan-27 22:59N 40°08' W 074°45'0 0.0
2018-Jan-27 22:29N 40°08' W 074°45'0 0.0
2018-Jan-27 21:59N 40°08' W 074°45'0 0.0
2018-Jan-27 21:29N 40°08' W 074°45'0 0.0
2018-Jan-27 20:56N 40°08' W 074°45'0 0.0
2018-Jan-27 20:29N 40°08' W 074°45'0 0.0
2018-Jan-27 19:59N 40°08' W 074°45'0 0.0
2018-Jan-27 19:29N 40°08' W 074°45'0 0.0
2018-Jan-27 18:59N 40°08' W 074°45'0 0.0
2018-Jan-27 18:29N 40°08' W 074°45'0 0.0
2018-Jan-27 17:59N 40°08' W 074°45'0 0.0
2018-Jan-27 17:29N 40°08' W 074°45'0 0.0
2018-Jan-27 16:59N 40°08' W 074°45'0 0.0
2018-Jan-27 16:29N 40°08' W 074°45'0 0.0
2018-Jan-27 15:59N 40°08' W 074°45'0 0.0
2018-Jan-27 15:29N 40°08' W 074°45'0 0.0
2018-Jan-27 14:59N 40°08' W 074°45'0 0.0
2018-Jan-27 14:26N 40°08' W 074°45'0 0.0
2018-Jan-27 13:59N 40°08' W 074°45'0 0.0
2018-Jan-27 13:29N 40°08' W 074°45'0 0.0
2018-Jan-27 12:59N 40°08' W 074°45'0 0.0
2018-Jan-27 12:29N 40°08' W 074°45'0 0.0
2018-Jan-27 11:50N 40°08' W 074°45'0 0.0
2018-Jan-27 11:26N 40°08' W 074°45'0 0.0
2018-Jan-27 10:59N 40°08' W 074°45'0 0.0
2018-Jan-27 10:11N 40°08' W 074°45'0 0.0
2018-Jan-27 09:56N 40°08' W 074°45'0 0.0
2018-Jan-27 09:26N 40°08' W 074°45'0 0.0
2018-Jan-27 08:56N 40°08' W 074°45'0 0.0
2018-Jan-27 08:26N 40°08' W 074°45'0 0.0
2018-Jan-27 07:56N 40°08' W 074°45'0 0.0
2018-Jan-27 06:14N 40°08' W 074°45'0 0.0
2018-Jan-27 05:50N 40°08' W 074°45'0 0.0
2018-Jan-27 05:29N 40°08' W 074°45'0 0.0
2018-Jan-27 04:59N 40°08' W 074°45'0 0.0
2018-Jan-27 04:29N 40°08' W 074°45'0 0.0
2018-Jan-27 03:59N 40°08' W 074°45'0 0.0
2018-Jan-27 03:20N 40°08' W 074°45'0 0.0
2018-Jan-27 02:50N 40°08' W 074°45'0 0.0
2018-Jan-27 02:29N 40°08' W 074°45'0 0.0
2018-Jan-27 00:14N 40°08' W 074°45'0 0.0
2018-Jan-26 23:59N 40°08' W 074°45'0 0.0
2018-Jan-26 23:20N 40°08' W 074°45'0 0.0
2018-Jan-26 21:50N 40°08' W 074°45'0 0.0
2018-Jan-26 21:20N 40°08' W 074°45'0 0.0
2018-Jan-26 20:59N 40°08' W 074°45'0 0.0
2018-Jan-26 20:29N 40°08' W 074°45'0 0.0
2018-Jan-26 19:59N 40°08' W 074°45'0 0.0
2018-Jan-26 19:26N 40°08' W 074°45'0 0.0
2018-Jan-26 18:59N 40°08' W 074°45'0 0.0
2018-Jan-26 18:29N 40°08' W 074°45'0 0.0
2018-Jan-26 17:59N 40°08' W 074°45'0 0.0
2018-Jan-26 17:20N 40°08' W 074°45'0 0.0
2018-Jan-26 16:38N 40°08' W 074°45'0 0.0
2018-Jan-26 14:56N 40°08' W 074°45'0 0.0
2018-Jan-26 14:29N 40°08' W 074°45'0 0.0
2018-Jan-26 13:59N 40°08' W 074°45'0 0.0
2018-Jan-26 13:26N 40°08' W 074°45'0 0.0
2018-Jan-26 12:44N 40°08' W 074°45'0 0.0
2018-Jan-26 12:29N 40°08' W 074°45'0 0.0
2018-Jan-26 11:56N 40°08' W 074°45'0 0.0
2018-Jan-26 11:29N 40°08' W 074°45'0 0.0
2018-Jan-26 10:56N 40°08' W 074°45'0 0.0
2018-Jan-26 10:23N 40°08' W 074°45'0 0.0
2018-Jan-26 09:56N 40°08' W 074°45'0 0.0
2018-Jan-26 09:26N 40°08' W 074°45'0 0.0
2018-Jan-26 08:59N 40°08' W 074°45'0 0.0
2018-Jan-26 08:26N 40°08' W 074°45'0 0.0
2018-Jan-26 07:59N 40°08' W 074°45'0 0.0
2018-Jan-26 07:29N 40°08' W 074°45'0 0.0
2018-Jan-26 06:59N 40°08' W 074°45'0 0.0
2018-Jan-26 06:29N 40°08' W 074°45'0 0.0
2018-Jan-26 05:59N 40°08' W 074°45'0 0.0
2018-Jan-26 05:29N 40°08' W 074°45'0 0.0
2018-Jan-26 04:56N 40°08' W 074°45'0 0.0
2018-Jan-26 04:26N 40°08' W 074°45'0 0.0
2018-Jan-26 03:59N 40°08' W 074°45'0 0.0
2018-Jan-26 03:29N 40°08' W 074°45'0 0.0
2018-Jan-26 02:59N 40°08' W 074°45'0 0.0
2018-Jan-26 02:29N 40°08' W 074°45'0 0.0
2018-Jan-26 01:59N 40°08' W 074°45'0 0.0
2018-Jan-26 01:29N 40°08' W 074°45'0 0.0
2018-Jan-26 00:59N 40°08' W 074°45'0 0.0
2018-Jan-26 00:26N 40°08' W 074°45'0 0.0
2018-Jan-25 23:59N 40°08' W 074°45'0 0.0
2018-Jan-25 23:26N 40°08' W 074°45'0 0.0
2018-Jan-25 22:59N 40°08' W 074°45'0 0.0
2018-Jan-25 22:29N 40°08' W 074°45'0 0.0
2018-Jan-25 21:59N 40°08' W 074°45'0 0.0
2018-Jan-25 21:29N 40°08' W 074°45'0 0.0
2018-Jan-25 20:59N 40°08' W 074°45'0 0.0
2018-Jan-25 20:29N 40°08' W 074°45'0 0.0
2018-Jan-25 19:59N 40°08' W 074°45'0 0.0
2018-Jan-25 19:26N 40°08' W 074°45'0 0.0
2018-Jan-25 18:59N 40°08' W 074°45'0 0.0
2018-Jan-25 18:29N 40°08' W 074°45'0 0.0
2018-Jan-25 17:59N 40°08' W 074°45'0 0.0
2018-Jan-25 17:29N 40°08' W 074°45'0 0.0
2018-Jan-25 16:59N 40°08' W 074°45'0 0.0
2018-Jan-25 16:29N 40°08' W 074°45'0 0.0
2018-Jan-25 15:59N 40°08' W 074°45'0 0.0
2018-Jan-25 15:29N 40°08' W 074°45'0 0.0
2018-Jan-25 14:59N 40°08' W 074°45'0 0.0
2018-Jan-25 14:29N 40°08' W 074°45'0 0.0
2018-Jan-25 13:59N 40°08' W 074°45'0 0.0
2018-Jan-25 13:29N 40°08' W 074°45'0 0.0
2018-Jan-25 12:59N 40°08' W 074°45'0 0.0
2018-Jan-25 12:20N 40°08' W 074°45'0 0.0
2018-Jan-25 11:56N 40°08' W 074°45'0 0.0
2018-Jan-25 11:23N 40°08' W 074°45'0 0.0
2018-Jan-25 10:59N 40°08' W 074°45'0 0.0
2018-Jan-25 10:26N 40°08' W 074°45'0 0.0
2018-Jan-25 09:59N 40°08' W 074°45'0 0.0
2018-Jan-25 09:29N 40°08' W 074°45'0 0.0
2018-Jan-25 08:59N 40°08' W 074°45'0 0.0
2018-Jan-25 08:29N 40°08' W 074°45'0 0.0
2018-Jan-25 07:59N 40°08' W 074°45'0 0.0
2018-Jan-25 07:29N 40°08' W 074°45'0 0.0
2018-Jan-25 06:59N 40°08' W 074°45'0 0.0
2018-Jan-25 06:26N 40°08' W 074°45'0 0.0
2018-Jan-25 05:59N 40°08' W 074°45'0 0.0
2018-Jan-25 05:29N 40°08' W 074°45'0 0.0
2018-Jan-25 04:59N 40°08' W 074°45'0 0.0
2018-Jan-25 04:29N 40°08' W 074°45'0 0.0
2018-Jan-25 03:59N 40°08' W 074°45'0 0.0
2018-Jan-25 03:29N 40°08' W 074°45'0 0.0
2018-Jan-25 02:56N 40°08' W 074°45'0 0.0
2018-Jan-25 02:29N 40°08' W 074°45'0 0.0
2018-Jan-25 01:59N 40°08' W 074°45'0 0.0
2018-Jan-25 01:29N 40°08' W 074°45'0 0.0
2018-Jan-25 00:59N 40°08' W 074°45'0 0.0
2018-Jan-25 00:29N 40°08' W 074°45'0 0.0
2018-Jan-24 23:59N 40°08' W 074°45'0 0.0
2018-Jan-24 23:29N 40°08' W 074°45'0 0.0
2018-Jan-24 22:59N 40°08' W 074°45'0 0.0
2018-Jan-24 22:29N 40°08' W 074°45'0 0.0
2018-Jan-24 21:59N 40°08' W 074°45'0 0.0
2018-Jan-24 21:29N 40°08' W 074°45'0 0.0
2018-Jan-24 20:56N 40°08' W 074°45'0 0.0
2018-Jan-24 20:29N 40°08' W 074°45'0 0.0
2018-Jan-24 19:59N 40°08' W 074°45'0 0.0
2018-Jan-24 19:26N 40°08' W 074°45'0 0.0
2018-Jan-24 18:59N 40°08' W 074°45'0 0.0
2018-Jan-24 18:29N 40°08' W 074°45'0 0.0
2018-Jan-24 17:56N 40°08' W 074°45'0 0.0
2018-Jan-24 17:29N 40°08' W 074°45'0 0.0
2018-Jan-24 16:59N 40°08' W 074°45'0 0.0
2018-Jan-24 16:29N 40°08' W 074°45'0 0.0
2018-Jan-24 15:59N 40°08' W 074°45'0 0.0
2018-Jan-24 15:29N 40°08' W 074°45'0 0.0
2018-Jan-24 14:59N 40°08' W 074°45'0 0.0
2018-Jan-24 14:29N 40°08' W 074°45'0 0.0
2018-Jan-24 13:59N 40°08' W 074°45'0 0.0
2018-Jan-24 13:17N 40°08' W 074°45'0 0.0
2018-Jan-24 12:59N 40°08' W 074°45'0 0.0
2018-Jan-24 12:29N 40°08' W 074°45'0 0.0
2018-Jan-24 11:59N 40°08' W 074°45'0 0.0
2018-Jan-24 11:29N 40°08' W 074°45'0 0.0
2018-Jan-24 10:59N 40°08' W 074°45'  

Dump ship's entire track history